sensor_id;sensor_type;location;lat;lon;timestamp;pressure;altitude;pressure_sealevel;temperature;humidity
48652;BME280;34442;52.362;-1.302;2023-02-28T00:01:06;102055.63;;;5.45;100.00
48652;BME280;34442;52.362;-1.302;2023-02-28T00:03:32;102046.38;;;5.49;100.00
48652;BME280;34442;52.362;-1.302;2023-02-28T00:06:04;102046.34;;;5.39;100.00
48652;BME280;34442;52.362;-1.302;2023-02-28T00:08:30;102048.13;;;5.39;100.00
48652;BME280;34442;52.362;-1.302;2023-02-28T00:11:01;102043.53;;;5.41;100.00
48652;BME280;34442;52.362;-1.302;2023-02-28T00:13:26;102050.28;;;5.45;100.00
48652;BME280;34442;52.362;-1.302;2023-02-28T00:16:02;102057.19;;;5.47;100.00
48652;BME280;34442;52.362;-1.302;2023-02-28T00:18:28;102061.66;;;5.47;100.00
48652;BME280;34442;52.362;-1.302;2023-02-28T00:20:53;102056.78;;;5.52;100.00
48652;BME280;34442;52.362;-1.302;2023-02-28T00:23:19;102053.66;;;5.47;100.00
48652;BME280;34442;52.362;-1.302;2023-02-28T00:25:44;102053.81;;;5.45;100.00
48652;BME280;34442;52.362;-1.302;2023-02-28T00:28:10;102063.78;;;5.43;100.00
48652;BME280;34442;52.362;-1.302;2023-02-28T00:30:35;102060.03;;;5.35;100.00
48652;BME280;34442;52.362;-1.302;2023-02-28T00:33:00;102053.56;;;5.28;100.00
48652;BME280;34442;52.362;-1.302;2023-02-28T00:35:26;102054.44;;;5.38;100.00
48652;BME280;34442;52.362;-1.302;2023-02-28T00:37:51;102058.53;;;5.42;100.00
48652;BME280;34442;52.362;-1.302;2023-02-28T00:40:17;102065.00;;;5.39;100.00
48652;BME280;34442;52.362;-1.302;2023-02-28T00:42:42;102058.25;;;5.35;100.00
48652;BME280;34442;52.362;-1.302;2023-02-28T00:45:08;102055.25;;;5.29;100.00
48652;BME280;34442;52.362;-1.302;2023-02-28T00:47:33;102056.63;;;5.23;100.00
48652;BME280;34442;52.362;-1.302;2023-02-28T00:49:59;102056.63;;;5.23;100.00
48652;BME280;34442;52.362;-1.302;2023-02-28T00:52:25;102057.84;;;5.19;100.00
48652;BME280;34442;52.362;-1.302;2023-02-28T00:54:50;102067.19;;;5.13;100.00
48652;BME280;34442;52.362;-1.302;2023-02-28T00:57:16;102076.78;;;5.16;100.00
48652;BME280;34442;52.362;-1.302;2023-02-28T00:59:41;102069.47;;;5.18;100.00
48652;BME280;34442;52.362;-1.302;2023-02-28T01:02:07;102067.41;;;5.21;100.00
48652;BME280;34442;52.362;-1.302;2023-02-28T01:04:32;102071.25;;;5.29;100.00
48652;BME280;34442;52.362;-1.302;2023-02-28T01:06:57;102071.00;;;5.32;100.00
48652;BME280;34442;52.362;-1.302;2023-02-28T01:09:23;102072.28;;;5.37;100.00
48652;BME280;34442;52.362;-1.302;2023-02-28T01:11:48;102072.41;;;5.36;100.00
48652;BME280;34442;52.362;-1.302;2023-02-28T01:14:16;102072.66;;;5.33;100.00
48652;BME280;34442;52.362;-1.302;2023-02-28T01:16:42;102073.38;;;5.35;100.00
48652;BME280;34442;52.362;-1.302;2023-02-28T01:19:08;102075.34;;;5.33;100.00
48652;BME280;34442;52.362;-1.302;2023-02-28T01:21:33;102078.41;;;5.28;100.00
48652;BME280;34442;52.362;-1.302;2023-02-28T01:24:00;102078.25;;;5.30;100.00
48652;BME280;34442;52.362;-1.302;2023-02-28T01:26:25;102078.34;;;5.39;100.00
48652;BME280;34442;52.362;-1.302;2023-02-28T01:28:52;102082.56;;;5.42;100.00
48652;BME280;34442;52.362;-1.302;2023-02-28T01:31:19;102093.16;;;5.32;100.00
48652;BME280;34442;52.362;-1.302;2023-02-28T01:33:45;102086.84;;;5.33;100.00
48652;BME280;34442;52.362;-1.302;2023-02-28T01:36:13;102088.66;;;5.33;100.00
48652;BME280;34442;52.362;-1.302;2023-02-28T01:38:39;102084.19;;;5.33;100.00
48652;BME280;34442;52.362;-1.302;2023-02-28T01:41:06;102081.47;;;5.23;100.00
48652;BME280;34442;52.362;-1.302;2023-02-28T01:46:13;102091.59;;;5.30;100.00
48652;BME280;34442;52.362;-1.302;2023-02-28T01:48:56;102088.91;;;5.30;100.00
48652;BME280;34442;52.362;-1.302;2023-02-28T01:51:51;102083.34;;;5.33;100.00
48652;BME280;34442;52.362;-1.302;2023-02-28T01:54:30;102080.63;;;5.23;100.00
48652;BME280;34442;52.362;-1.302;2023-02-28T01:57:04;102074.91;;;5.28;100.00
48652;BME280;34442;52.362;-1.302;2023-02-28T01:59:39;102078.50;;;5.27;100.00
48652;BME280;34442;52.362;-1.302;2023-02-28T02:02:17;102082.09;;;5.16;100.00
48652;BME280;34442;52.362;-1.302;2023-02-28T02:05:07;102079.88;;;5.21;100.00
48652;BME280;34442;52.362;-1.302;2023-02-28T02:07:36;102081.56;;;5.22;100.00
48652;BME280;34442;52.362;-1.302;2023-02-28T02:10:14;102074.56;;;5.21;100.00
48652;BME280;34442;52.362;-1.302;2023-02-28T02:16:04;102082.88;;;5.28;100.00
48652;BME280;34442;52.362;-1.302;2023-02-28T02:18:34;102083.53;;;5.20;100.00
48652;BME280;34442;52.362;-1.302;2023-02-28T02:21:16;102078.78;;;5.23;100.00
48652;BME280;34442;52.362;-1.302;2023-02-28T02:34:56;102078.72;;;5.35;100.00
48652;BME280;34442;52.362;-1.302;2023-02-28T02:37:29;102075.34;;;5.33;100.00
48652;BME280;34442;52.362;-1.302;2023-02-28T02:40:07;102064.34;;;5.26;100.00
48652;BME280;34442;52.362;-1.302;2023-02-28T02:42:51;102058.81;;;5.18;100.00
48652;BME280;34442;52.362;-1.302;2023-02-28T02:45:25;102071.50;;;5.26;100.00
48652;BME280;34442;52.362;-1.302;2023-02-28T02:47:53;102058.31;;;5.24;100.00
48652;BME280;34442;52.362;-1.302;2023-02-28T02:50:27;102063.38;;;5.27;100.00
48652;BME280;34442;52.362;-1.302;2023-02-28T02:52:58;102061.56;;;5.28;100.00
48652;BME280;34442;52.362;-1.302;2023-02-28T02:55:25;102052.97;;;5.24;100.00
48652;BME280;34442;52.362;-1.302;2023-02-28T02:58:00;102053.81;;;5.25;100.00
48652;BME280;34442;52.362;-1.302;2023-02-28T03:00:33;102055.38;;;5.27;100.00
48652;BME280;34442;52.362;-1.302;2023-02-28T03:03:01;102058.31;;;5.24;100.00
48652;BME280;34442;52.362;-1.302;2023-02-28T03:05:41;102054.66;;;5.25;100.00
48652;BME280;34442;52.362;-1.302;2023-02-28T03:08:07;102050.31;;;5.24;100.00
48652;BME280;34442;52.362;-1.302;2023-02-28T03:10:44;102051.16;;;5.25;100.00
48652;BME280;34442;52.362;-1.302;2023-02-28T03:18:42;102059.28;;;5.23;100.00
48652;BME280;34442;52.362;-1.302;2023-02-28T03:23:50;102048.47;;;5.25;100.00
48652;BME280;34442;52.362;-1.302;2023-02-28T03:26:22;102053.56;;;5.28;100.00
48652;BME280;34442;52.362;-1.302;2023-02-28T03:34:12;102058.59;;;5.31;100.00
48652;BME280;34442;52.362;-1.302;2023-02-28T03:36:45;102061.75;;;5.36;100.00
48652;BME280;34442;52.362;-1.302;2023-02-28T03:39:36;102060.03;;;5.35;100.00
48652;BME280;34442;52.362;-1.302;2023-02-28T03:42:20;102063.69;;;5.34;100.00
48652;BME280;34442;52.362;-1.302;2023-02-28T03:44:59;102059.78;;;5.38;100.00
48652;BME280;34442;52.362;-1.302;2023-02-28T03:48:02;102065.44;;;5.44;100.00
48652;BME280;34442;52.362;-1.302;2023-02-28T03:50:38;102060.63;;;5.38;100.00
48652;BME280;34442;52.362;-1.302;2023-02-28T03:53:12;102062.44;;;5.38;100.00
48652;BME280;34442;52.362;-1.302;2023-02-28T03:55:45;102059.34;;;5.33;100.00
48652;BME280;34442;52.362;-1.302;2023-02-28T04:00:49;102067.34;;;5.33;100.00
48652;BME280;34442;52.362;-1.302;2023-02-28T04:03:17;102065.06;;;5.28;100.00
48652;BME280;34442;52.362;-1.302;2023-02-28T04:06:00;102065.13;;;5.38;100.00
48652;BME280;34442;52.362;-1.302;2023-02-28T04:08:26;102064.53;;;5.34;100.00
48652;BME280;34442;52.362;-1.302;2023-02-28T04:10:56;102067.94;;;5.36;100.00
48652;BME280;34442;52.362;-1.302;2023-02-28T04:13:23;102066.09;;;5.37;100.00
48652;BME280;34442;52.362;-1.302;2023-02-28T04:15:48;102068.50;;;5.40;100.00
48652;BME280;34442;52.362;-1.302;2023-02-28T04:18:13;102067.47;;;5.31;100.00
48652;BME280;34442;52.362;-1.302;2023-02-28T04:20:39;102063.69;;;5.34;100.00
48652;BME280;34442;52.362;-1.302;2023-02-28T04:23:04;102058.50;;;5.32;100.00
48652;BME280;34442;52.362;-1.302;2023-02-28T04:25:30;102059.09;;;5.36;100.00
48652;BME280;34442;52.362;-1.302;2023-02-28T04:27:55;102075.09;;;5.36;100.00
48652;BME280;34442;52.362;-1.302;2023-02-28T04:30:20;102067.28;;;5.23;100.00
48652;BME280;34442;52.362;-1.302;2023-02-28T04:32:46;102060.97;;;5.24;100.00
48652;BME280;34442;52.362;-1.302;2023-02-28T04:35:11;102066.44;;;5.22;100.00
48652;BME280;34442;52.362;-1.302;2023-02-28T04:37:36;102069.41;;;5.29;100.00
48652;BME280;34442;52.362;-1.302;2023-02-28T04:40:03;102063.38;;;5.27;100.00
48652;BME280;34442;52.362;-1.302;2023-02-28T04:42:28;102066.44;;;5.22;100.00
48652;BME280;34442;52.362;-1.302;2023-02-28T04:45:02;102061.63;;;5.16;100.00
48652;BME280;34442;52.362;-1.302;2023-02-28T04:47:27;102058.06;;;5.27;100.00
48652;BME280;34442;52.362;-1.302;2023-02-28T04:49:53;102060.31;;;5.32;100.00
48652;BME280;34442;52.362;-1.302;2023-02-28T04:52:18;102068.56;;;5.29;100.00
48652;BME280;34442;52.362;-1.302;2023-02-28T04:54:44;102066.34;;;5.34;100.00
48652;BME280;34442;52.362;-1.302;2023-02-28T04:57:10;102064.34;;;5.26;100.00
48652;BME280;34442;52.362;-1.302;2023-02-28T04:59:35;102072.53;;;5.13;100.00
48652;BME280;34442;52.362;-1.302;2023-02-28T05:02:01;102075.78;;;5.17;100.00
48652;BME280;34442;52.362;-1.302;2023-02-28T05:04:32;102075.19;;;5.13;100.00
48652;BME280;34442;52.362;-1.302;2023-02-28T05:06:59;102068.97;;;5.24;100.00
48652;BME280;34442;52.362;-1.302;2023-02-28T05:09:25;102073.00;;;5.18;100.00
48652;BME280;34442;52.362;-1.302;2023-02-28T05:11:50;102079.28;;;5.17;100.00
48652;BME280;34442;52.362;-1.302;2023-02-28T05:14:16;102081.13;;;5.17;100.00
48652;BME280;34442;52.362;-1.302;2023-02-28T05:16:41;102077.94;;;5.23;100.00
48652;BME280;34442;52.362;-1.302;2023-02-28T05:19:07;102073.47;;;5.23;100.00
48652;BME280;34442;52.362;-1.302;2023-02-28T05:21:35;102075.69;;;5.18;100.00
48652;BME280;34442;52.362;-1.302;2023-02-28T05:24:03;102074.56;;;5.21;100.00
48652;BME280;34442;52.362;-1.302;2023-02-28T05:26:30;102071.44;;;5.16;100.00
48652;BME280;34442;52.362;-1.302;2023-02-28T05:28:56;102077.28;;;5.10;100.00
48652;BME280;34442;52.362;-1.302;2023-02-28T05:31:22;102076.25;;;5.22;100.00
48652;BME280;34442;52.362;-1.302;2023-02-28T05:33:47;102084.63;;;5.17;100.00
48652;BME280;34442;52.362;-1.302;2023-02-28T05:36:13;102083.53;;;5.20;100.00
48652;BME280;34442;52.362;-1.302;2023-02-28T05:38:39;102095.25;;;5.29;100.00
48652;BME280;34442;52.362;-1.302;2023-02-28T05:41:08;102085.56;;;5.28;100.00
48652;BME280;34442;52.362;-1.302;2023-02-28T05:43:35;102092.97;;;5.24;100.00
48652;BME280;34442;52.362;-1.302;2023-02-28T05:46:03;102092.81;;;5.26;100.00
48652;BME280;34442;52.362;-1.302;2023-02-28T05:48:29;102092.38;;;5.20;100.00
48652;BME280;34442;52.362;-1.302;2023-02-28T05:50:54;102089.31;;;5.25;100.00
48652;BME280;34442;52.362;-1.302;2023-02-28T05:53:20;102092.31;;;5.32;100.00
48652;BME280;34442;52.362;-1.302;2023-02-28T05:55:46;102089.06;;;5.28;100.00
48652;BME280;34442;52.362;-1.302;2023-02-28T05:58:11;102098.75;;;5.29;100.00
48652;BME280;34442;52.362;-1.302;2023-02-28T06:00:36;102103.09;;;5.30;100.00
48652;BME280;34442;52.362;-1.302;2023-02-28T06:03:02;102108.97;;;5.24;100.00
48652;BME280;34442;52.362;-1.302;2023-02-28T06:05:28;102101.34;;;5.19;100.00
48652;BME280;34442;52.362;-1.302;2023-02-28T06:07:53;102107.47;;;5.31;100.00
48652;BME280;34442;52.362;-1.302;2023-02-28T06:10:19;102110.84;;;5.33;100.00
48652;BME280;34442;52.362;-1.302;2023-02-28T06:12:44;102108.63;;;5.38;100.00
48652;BME280;34442;52.362;-1.302;2023-02-28T06:15:15;102098.69;;;5.40;100.00
48652;BME280;34442;52.362;-1.302;2023-02-28T06:17:43;102103.84;;;5.32;100.00
48652;BME280;34442;52.362;-1.302;2023-02-28T06:20:10;102111.69;;;5.34;100.00
48652;BME280;34442;52.362;-1.302;2023-02-28T06:22:38;102108.97;;;5.24;100.00
48652;BME280;34442;52.362;-1.302;2023-02-28T06:25:05;102108.72;;;5.27;100.00
48652;BME280;34442;52.362;-1.302;2023-02-28T06:27:31;102112.22;;;5.28;100.00
48652;BME280;34442;52.362;-1.302;2023-02-28T06:29:57;102116.97;;;5.24;100.00
48652;BME280;34442;52.362;-1.302;2023-02-28T06:32:22;102113.31;;;5.25;100.00
48652;BME280;34442;52.362;-1.302;2023-02-28T06:34:48;102112.34;;;5.26;100.00
48652;BME280;34442;52.362;-1.302;2023-02-28T06:37:14;102108.19;;;5.33;100.00
48652;BME280;34442;52.362;-1.302;2023-02-28T06:39:39;102111.50;;;5.26;100.00
48652;BME280;34442;52.362;-1.302;2023-02-28T06:42:05;102112.22;;;5.28;100.00
48652;BME280;34442;52.362;-1.302;2023-02-28T06:44:30;102104.09;;;5.29;100.00
48652;BME280;34442;52.362;-1.302;2023-02-28T06:47:03;102106.09;;;5.37;100.00
48652;BME280;34442;52.362;-1.302;2023-02-28T06:49:34;102105.97;;;5.38;100.00
48652;BME280;34442;52.362;-1.302;2023-02-28T06:52:00;102101.88;;;5.34;100.00
48652;BME280;34442;52.362;-1.302;2023-02-28T06:54:25;102096.03;;;5.40;100.00
48652;BME280;34442;52.362;-1.302;2023-02-28T06:56:50;102097.47;;;5.44;100.00
48652;BME280;34442;52.362;-1.302;2023-02-28T06:59:16;102096.03;;;5.40;100.00
48652;BME280;34442;52.362;-1.302;2023-02-28T07:01:42;102106.25;;;5.35;100.00
48652;BME280;34442;52.362;-1.302;2023-02-28T07:04:07;102105.06;;;5.28;100.00
48652;BME280;34442;52.362;-1.302;2023-02-28T07:06:33;102099.84;;;5.27;100.00
48652;BME280;34442;52.362;-1.302;2023-02-28T07:08:58;102109.16;;;5.32;100.00
48652;BME280;34442;52.362;-1.302;2023-02-28T07:11:26;102113.97;;;5.38;100.00
48652;BME280;34442;52.362;-1.302;2023-02-28T07:13:53;102116.63;;;5.38;100.00
48652;BME280;34442;52.362;-1.302;2023-02-28T07:16:18;102116.38;;;5.41;100.00
48652;BME280;34442;52.362;-1.302;2023-02-28T07:18:44;102116.38;;;5.41;100.00
48652;BME280;34442;52.362;-1.302;2023-02-28T07:21:11;102129.38;;;5.35;100.00
48652;BME280;34442;52.362;-1.302;2023-02-28T07:23:37;102121.97;;;5.38;100.00
48652;BME280;34442;52.362;-1.302;2023-02-28T07:26:05;102115.78;;;5.38;100.00
48652;BME280;34442;52.362;-1.302;2023-02-28T07:28:30;102130.56;;;5.42;100.00
48652;BME280;34442;52.362;-1.302;2023-02-28T07:30:56;102127.03;;;5.41;100.00
48652;BME280;34442;52.362;-1.302;2023-02-28T07:33:21;102125.75;;;5.36;100.00
48652;BME280;34442;52.362;-1.302;2023-02-28T07:35:46;102127.56;;;5.35;100.00
48652;BME280;34442;52.362;-1.302;2023-02-28T07:38:12;102131.19;;;5.34;100.00
48652;BME280;34442;52.362;-1.302;2023-02-28T07:40:39;102126.19;;;5.41;100.00
48652;BME280;34442;52.362;-1.302;2023-02-28T07:43:05;102124.22;;;5.43;100.00
48652;BME280;34442;52.362;-1.302;2023-02-28T07:45:30;102128.63;;;5.44;100.00
48652;BME280;34442;52.362;-1.302;2023-02-28T07:47:59;102129.72;;;5.41;100.00
48652;BME280;34442;52.362;-1.302;2023-02-28T07:50:25;102129.56;;;5.43;100.00
48652;BME280;34442;52.362;-1.302;2023-02-28T07:52:52;102136.34;;;5.47;100.00
48652;BME280;34442;52.362;-1.302;2023-02-28T07:55:20;102149.16;;;5.53;100.00
48652;BME280;34442;52.362;-1.302;2023-02-28T07:57:46;102142.78;;;5.44;100.00
48652;BME280;34442;52.362;-1.302;2023-02-28T08:00:12;102147.50;;;5.52;100.00
48652;BME280;34442;52.362;-1.302;2023-02-28T08:02:38;102146.16;;;5.46;100.00
48652;BME280;34442;52.362;-1.302;2023-02-28T08:05:05;102145.31;;;5.46;100.00
48652;BME280;34442;52.362;-1.302;2023-02-28T08:07:30;102148.31;;;5.53;100.00
48652;BME280;34442;52.362;-1.302;2023-02-28T08:09:59;102145.97;;;5.59;100.00
48652;BME280;34442;52.362;-1.302;2023-02-28T08:12:24;102152.72;;;5.63;100.00
48652;BME280;34442;52.362;-1.302;2023-02-28T08:14:50;102137.00;;;5.60;100.00
48652;BME280;34442;52.362;-1.302;2023-02-28T08:17:15;102136.28;;;5.58;100.00
48652;BME280;34442;52.362;-1.302;2023-02-28T08:19:41;102145.59;;;5.64;100.00
48652;BME280;34442;52.362;-1.302;2023-02-28T08:22:07;102138.88;;;5.69;100.00
48652;BME280;34442;52.362;-1.302;2023-02-28T08:24:32;102139.09;;;5.57;100.00
48652;BME280;34442;52.362;-1.302;2023-02-28T08:26:58;102140.06;;;5.56;100.00
48652;BME280;34442;52.362;-1.302;2023-02-28T08:29:24;102147.88;;;5.68;100.00
48652;BME280;34442;52.362;-1.302;2023-02-28T08:31:49;102135.50;;;5.67;100.00
48652;BME280;34442;52.362;-1.302;2023-02-28T08:34:16;102141.00;;;5.76;100.00
48652;BME280;34442;52.362;-1.302;2023-02-28T08:36:42;102131.13;;;5.66;100.00
48652;BME280;34442;52.362;-1.302;2023-02-28T08:39:10;102132.47;;;5.72;100.00
48652;BME280;34442;52.362;-1.302;2023-02-28T08:41:35;102132.06;;;5.77;100.00
48652;BME280;34442;52.362;-1.302;2023-02-28T08:44:02;102133.28;;;5.72;100.00
48652;BME280;34442;52.362;-1.302;2023-02-28T08:46:27;102129.25;;;5.78;100.00
48652;BME280;34442;52.362;-1.302;2023-02-28T08:48:55;102130.75;;;5.71;100.00
48652;BME280;34442;52.362;-1.302;2023-02-28T08:51:21;102128.59;;;5.86;100.00
48652;BME280;34442;52.362;-1.302;2023-02-28T08:53:52;102136.06;;;5.92;100.00
48652;BME280;34442;52.362;-1.302;2023-02-28T08:56:18;102130.47;;;5.95;100.00
48652;BME280;34442;52.362;-1.302;2023-02-28T08:58:45;102130.75;;;5.92;100.00
48652;BME280;34442;52.362;-1.302;2023-02-28T09:01:17;102136.25;;;6.00;100.00
48652;BME280;34442;52.362;-1.302;2023-02-28T09:03:45;102133.91;;;6.07;100.00
48652;BME280;34442;52.362;-1.302;2023-02-28T09:06:12;102136.03;;;6.13;100.00
48652;BME280;34442;52.362;-1.302;2023-02-28T09:08:39;102134.75;;;6.07;100.00
48652;BME280;34442;52.362;-1.302;2023-02-28T09:11:05;102131.84;;;6.20;100.00
48652;BME280;34442;52.362;-1.302;2023-02-28T09:13:31;102130.03;;;6.20;100.00
48652;BME280;34442;52.362;-1.302;2023-02-28T09:16:02;102131.59;;;6.23;100.00
48652;BME280;34442;52.362;-1.302;2023-02-28T09:18:28;102129.19;;;6.20;100.00
48652;BME280;34442;52.362;-1.302;2023-02-28T09:20:56;102135.19;;;6.12;100.00
48652;BME280;34442;52.362;-1.302;2023-02-28T09:23:23;102132.13;;;6.17;100.00
48652;BME280;34442;52.362;-1.302;2023-02-28T09:25:53;102135.50;;;6.19;100.00
48652;BME280;34442;52.362;-1.302;2023-02-28T09:28:20;102141.69;;;6.19;100.00
48652;BME280;34442;52.362;-1.302;2023-02-28T09:30:48;102134.78;;;6.17;100.00
48652;BME280;34442;52.362;-1.302;2023-02-28T09:33:14;102131.28;;;6.16;100.00
48652;BME280;34442;52.362;-1.302;2023-02-28T09:35:40;102133.53;;;6.21;100.00
48652;BME280;34442;52.362;-1.302;2023-02-28T09:38:06;102135.06;;;6.14;100.00
48652;BME280;34442;52.362;-1.302;2023-02-28T09:40:39;102129.00;;;6.12;100.00
48652;BME280;34442;52.362;-1.302;2023-02-28T09:43:12;102129.00;;;6.12;100.00
48652;BME280;34442;52.362;-1.302;2023-02-28T09:45:41;102130.31;;;6.17;100.00
48652;BME280;34442;52.362;-1.302;2023-02-28T09:48:23;102141.03;;;6.27;100.00
48652;BME280;34442;52.362;-1.302;2023-02-28T09:51:03;102135.84;;;6.35;100.00
48652;BME280;34442;52.362;-1.302;2023-02-28T09:53:36;102129.13;;;6.41;100.00
48652;BME280;34442;52.362;-1.302;2023-02-28T09:56:08;102140.63;;;6.32;100.00
48652;BME280;34442;52.362;-1.302;2023-02-28T09:58:51;102139.50;;;6.34;100.00
48652;BME280;34442;52.362;-1.302;2023-02-28T10:04:10;102125.16;;;6.35;100.00
48652;BME280;34442;52.362;-1.302;2023-02-28T10:06:55;102137.78;;;6.33;100.00
48652;BME280;34442;52.362;-1.302;2023-02-28T10:09:26;102140.28;;;6.15;100.00
48652;BME280;34442;52.362;-1.302;2023-02-28T10:11:54;102137.63;;;6.25;100.00
48652;BME280;34442;52.362;-1.302;2023-02-28T10:14:23;102133.44;;;6.32;100.00
48652;BME280;34442;52.362;-1.302;2023-02-28T10:17:05;102139.78;;;6.31;100.00
48652;BME280;34442;52.362;-1.302;2023-02-28T10:19:42;102130.59;;;6.14;100.00
48652;BME280;34442;52.362;-1.302;2023-02-28T10:22:27;102132.66;;;6.11;100.00
48652;BME280;34442;52.362;-1.302;2023-02-28T10:24:55;102130.41;;;6.06;100.00
48652;BME280;34442;52.362;-1.302;2023-02-28T10:27:32;102138.31;;;6.17;100.00
48652;BME280;34442;52.362;-1.302;2023-02-28T10:30:02;102132.84;;;6.19;100.00
48652;BME280;34442;52.362;-1.302;2023-02-28T10:32:33;102137.69;;;6.44;100.00
48652;BME280;34442;52.362;-1.302;2023-02-28T10:35:18;102130.56;;;6.55;100.00
48652;BME280;34442;52.362;-1.302;2023-02-28T10:37:46;102134.19;;;6.54;100.00
48652;BME280;34442;52.362;-1.302;2023-02-28T10:43:04;102135.13;;;6.83;100.00
48652;BME280;34442;52.362;-1.302;2023-02-28T10:45:34;102132.03;;;6.88;100.00
48652;BME280;34442;52.362;-1.302;2023-02-28T10:48:36;102130.59;;;6.74;100.00
48652;BME280;34442;52.362;-1.302;2023-02-28T10:51:02;102125.09;;;6.66;100.00
48652;BME280;34442;52.362;-1.302;2023-02-28T10:53:37;102127.91;;;6.74;100.00
48652;BME280;34442;52.362;-1.302;2023-02-28T10:56:06;102137.91;;;6.82;100.00
48652;BME280;34442;52.362;-1.302;2023-02-28T10:58:58;102125.16;;;7.05;100.00
48652;BME280;34442;52.362;-1.302;2023-02-28T11:01:41;102125.00;;;7.06;100.00
48652;BME280;34442;52.362;-1.302;2023-02-28T11:07:27;102116.84;;;7.37;100.00
48652;BME280;34442;52.362;-1.302;2023-02-28T11:09:55;102117.25;;;7.42;100.00
48652;BME280;34442;52.362;-1.302;2023-02-28T11:14:57;102101.53;;;7.76;100.00
48652;BME280;34442;52.362;-1.302;2023-02-28T11:17:25;102097.59;;;8.08;100.00
48652;BME280;34442;52.362;-1.302;2023-02-28T11:19:58;102092.16;;;8.00;100.00
48652;BME280;34442;52.362;-1.302;2023-02-28T11:22:29;102090.66;;;7.87;100.00
48652;BME280;34442;52.362;-1.302;2023-02-28T11:25:00;102085.75;;;7.73;100.00
48652;BME280;34442;52.362;-1.302;2023-02-28T11:29:55;102095.16;;;7.77;100.00
48652;BME280;34442;52.362;-1.302;2023-02-28T11:32:22;102083.59;;;7.39;100.00
48652;BME280;34442;52.362;-1.302;2023-02-28T11:37:37;102087.16;;;7.20;100.00
48652;BME280;34442;52.362;-1.302;2023-02-28T11:40:13;102090.09;;;7.17;100.00
48652;BME280;34442;52.362;-1.302;2023-02-28T11:48:10;102088.34;;;7.55;100.00
48652;BME280;34442;52.362;-1.302;2023-02-28T11:56:17;102075.03;;;7.73;100.00
48652;BME280;34442;52.362;-1.302;2023-02-28T12:02:16;102075.00;;;7.36;100.00
48652;BME280;34442;52.362;-1.302;2023-02-28T12:04:55;102074.56;;;7.40;100.00
48652;BME280;34442;52.362;-1.302;2023-02-28T12:20:53;102074.19;;;7.26;100.00
48652;BME280;34442;52.362;-1.302;2023-02-28T12:23:42;102062.19;;;7.20;100.00
48652;BME280;34442;52.362;-1.302;2023-02-28T12:26:30;102060.94;;;7.14;100.00
48652;BME280;34442;52.362;-1.302;2023-02-28T12:32:34;102064.47;;;7.15;100.00
48652;BME280;34442;52.362;-1.302;2023-02-28T12:35:10;102060.56;;;7.00;100.00
48652;BME280;34442;52.362;-1.302;2023-02-28T12:37:41;102056.19;;;6.99;100.00
48652;BME280;34442;52.362;-1.302;2023-02-28T12:40:15;102051.56;;;7.01;100.00
48652;BME280;34442;52.362;-1.302;2023-02-28T12:42:47;102047.06;;;6.91;100.00
48652;BME280;34442;52.362;-1.302;2023-02-28T12:45:23;102043.09;;;7.05;100.00
48652;BME280;34442;52.362;-1.302;2023-02-28T12:48:00;102045.06;;;7.03;100.00
48652;BME280;34442;52.362;-1.302;2023-02-28T12:50:29;102043.91;;;7.25;100.00
48652;BME280;34442;52.362;-1.302;2023-02-28T12:53:37;102031.81;;;7.21;100.00
48652;BME280;34442;52.362;-1.302;2023-02-28T12:58:48;102029.94;;;7.31;100.00
48652;BME280;34442;52.362;-1.302;2023-02-28T13:09:25;102023.97;;;7.57;100.00
48652;BME280;34442;52.362;-1.302;2023-02-28T13:11:54;102024.94;;;7.56;100.00
48652;BME280;34442;52.362;-1.302;2023-02-28T13:22:05;102013.25;;;7.57;100.00
48652;BME280;34442;52.362;-1.302;2023-02-28T13:24:45;102011.78;;;7.72;100.00
48652;BME280;34442;52.362;-1.302;2023-02-28T13:27:22;102010.44;;;7.86;100.00
48652;BME280;34442;52.362;-1.302;2023-02-28T13:29:52;102004.03;;;7.79;100.00
48652;BME280;34442;52.362;-1.302;2023-02-28T13:32:33;102000.00;;;7.92;100.00
48652;BME280;34442;52.362;-1.302;2023-02-28T13:39:55;101992.06;;;8.01;100.00
48652;BME280;34442;52.362;-1.302;2023-02-28T13:47:29;101988.78;;;8.07;100.00
48652;BME280;34442;52.362;-1.302;2023-02-28T13:55:27;101978.47;;;8.12;100.00
48652;BME280;34442;52.362;-1.302;2023-02-28T14:06:27;101979.09;;;8.24;100.00
48652;BME280;34442;52.362;-1.302;2023-02-28T14:11:51;101963.47;;;8.19;100.00
48652;BME280;34442;52.362;-1.302;2023-02-28T14:17:06;101965.38;;;7.81;100.00
48652;BME280;34442;52.362;-1.302;2023-02-28T14:19:36;101967.03;;;7.92;100.00
48652;BME280;34442;52.362;-1.302;2023-02-28T14:22:28;101965.19;;;7.92;100.00
48652;BME280;34442;52.362;-1.302;2023-02-28T14:25:18;101960.47;;;8.04;100.00
48652;BME280;34442;52.362;-1.302;2023-02-28T14:27:53;101960.22;;;7.97;100.00
48652;BME280;34442;52.362;-1.302;2023-02-28T14:36:16;101949.50;;;7.97;100.00
48652;BME280;34442;52.362;-1.302;2023-02-28T14:38:57;101948.81;;;7.95;100.00
48652;BME280;34442;52.362;-1.302;2023-02-28T14:41:36;101959.84;;;7.92;100.00
48652;BME280;34442;52.362;-1.302;2023-02-28T14:46:40;101943.66;;;7.66;100.00
48652;BME280;34442;52.362;-1.302;2023-02-28T14:49:26;101948.66;;;7.79;100.00
48652;BME280;34442;52.362;-1.302;2023-02-28T14:52:23;101946.44;;;7.65;100.00
48652;BME280;34442;52.362;-1.302;2023-02-28T14:54:58;101936.81;;;7.54;100.00
48652;BME280;34442;52.362;-1.302;2023-02-28T14:57:29;101934.56;;;7.50;100.00
48652;BME280;34442;52.362;-1.302;2023-02-28T14:59:59;101931.34;;;7.46;100.00
48652;BME280;34442;52.362;-1.302;2023-02-28T15:02:26;101928.06;;;7.52;100.00
48652;BME280;34442;52.362;-1.302;2023-02-28T15:04:56;101927.94;;;7.54;100.00
48652;BME280;34442;52.362;-1.302;2023-02-28T15:07:23;101927.09;;;7.53;100.00
48652;BME280;34442;52.362;-1.302;2023-02-28T15:10:13;101927.41;;;7.68;100.00
48652;BME280;34442;52.362;-1.302;2023-02-28T15:12:41;101928.72;;;7.64;100.00